AAL1006 MGGT-KMIA
Flight info
| Callsign | AAL1006 |
|---|---|
| Flight time | N/A |
| Altitude | 39000 |
| Route | TIKIS2B TIKIS UG765 MAXIM SNDBR3 |
| Aircraft | B738/M-SDE2E3FGHIRWXY/LB1 |
Departure
| Time | 2026-04-23 18:07 |
|---|---|
| Airport | La Aurora International Airport (MGGT) |
Arrival
| Time | N/A |
|---|---|
| Airport | Miami International Airport (KMIA) |
| Time | Latitude | Longitude | Altitude | Speed | Heading |
|---|---|---|---|---|---|
| 2026-04-23 17:42 | 14.59047 | -90.52837 | 4964 ft | 0 kts | 287° |
| 2026-04-23 17:58 | 14.59046 | -90.52834 | 4972 ft | 2 kts | 287° |
| 2026-04-23 17:59 | 14.59042 | -90.52816 | 4972 ft | 3 kts | 283° |
| 2026-04-23 17:59 | 14.59038 | -90.52796 | 4972 ft | 3 kts | 278° |
| 2026-04-23 17:59 | 14.59036 | -90.52775 | 4972 ft | 3 kts | 269° |
| 2026-04-23 17:59 | 14.59037 | -90.52755 | 4972 ft | 3 kts | 253° |
| 2026-04-23 18:00 | 14.59045 | -90.52737 | 4972 ft | 3 kts | 219° |
| 2026-04-23 18:00 | 14.59053 | -90.52732 | 4972 ft | 0 kts | 197° |
| 2026-04-23 18:03 | 14.59052 | -90.52732 | 4973 ft | 1 kts | 197° |
| 2026-04-23 18:03 | 14.59024 | -90.52741 | 4945 ft | 8 kts | 197° |
| 2026-04-23 18:03 | 14.58948 | -90.52765 | 4945 ft | 15 kts | 197° |
| 2026-04-23 18:04 | 14.58858 | -90.52780 | 4945 ft | 12 kts | 162° |
| 2026-04-23 18:04 | 14.58797 | -90.52735 | 4945 ft | 10 kts | 128° |
| 2026-04-23 18:04 | 14.58802 | -90.52668 | 4948 ft | 12 kts | 30° |
| 2026-04-23 18:04 | 14.58899 | -90.52635 | 4947 ft | 17 kts | 18° |
| 2026-04-23 18:05 | 14.59024 | -90.52594 | 4954 ft | 20 kts | 17° |
| 2026-04-23 18:05 | 14.59140 | -90.52557 | 4958 ft | 18 kts | 17° |
| 2026-04-23 18:05 | 14.59271 | -90.52514 | 4962 ft | 22 kts | 17° |
| 2026-04-23 18:05 | 14.59403 | -90.52471 | 4968 ft | 13 kts | 17° |
| 2026-04-23 18:06 | 14.59500 | -90.52440 | 4971 ft | 11 kts | 17° |
| 2026-04-23 18:06 | 14.59572 | -90.52411 | 4974 ft | 8 kts | 40° |
| 2026-04-23 18:06 | 14.59583 | -90.52366 | 4972 ft | 9 kts | 105° |
| 2026-04-23 18:06 | 14.59527 | -90.52363 | 4971 ft | 11 kts | 197° |
| 2026-04-23 18:07 | 14.59339 | -90.52423 | 4968 ft | 59 kts | 197° |
| 2026-04-23 18:07 | 14.58716 | -90.52623 | 4942 ft | 126 kts | 197° |
| 2026-04-23 18:07 | 14.57705 | -90.52943 | 4989 ft | 172 kts | 197° |
| 2026-04-23 18:07 | 14.56570 | -90.53295 | 5775 ft | 169 kts | 196° |
| 2026-04-23 18:08 | 14.55813 | -90.53528 | 6263 ft | 174 kts | 199° |
| 2026-04-23 18:08 | 14.54169 | -90.54058 | 6867 ft | 201 kts | 197° |
| 2026-04-23 18:08 | 14.52768 | -90.54509 | 7048 ft | 224 kts | 197° |
| 2026-04-23 18:08 | 14.51195 | -90.55007 | 7245 ft | 246 kts | 195° |
| 2026-04-23 18:09 | 14.49449 | -90.55184 | 7594 ft | 265 kts | 171° |
| 2026-04-23 18:09 | 14.47682 | -90.54522 | 8153 ft | 278 kts | 149° |
| 2026-04-23 18:09 | 14.46203 | -90.53186 | 8730 ft | 290 kts | 128° |
| 2026-04-23 18:09 | 14.45026 | -90.51461 | 9394 ft | 297 kts | 125° |
| 2026-04-23 18:10 | 14.43808 | -90.49718 | 10206 ft | 299 kts | 123° |
| 2026-04-23 18:10 | 14.42804 | -90.47845 | 10984 ft | 298 kts | 110° |
| 2026-04-23 18:10 | 14.42267 | -90.45778 | 11680 ft | 302 kts | 94° |
| 2026-04-23 18:10 | 14.42249 | -90.43618 | 12405 ft | 304 kts | 82° |
| 2026-04-23 18:11 | 14.42685 | -90.41461 | 13038 ft | 309 kts | 69° |
| 2026-04-23 18:11 | 14.43567 | -90.39439 | 13803 ft | 310 kts | 54° |
| 2026-04-23 18:11 | 14.44938 | -90.37720 | 14484 ft | 313 kts | 41° |
| 2026-04-23 18:11 | 14.46652 | -90.36341 | 15164 ft | 313 kts | 29° |
| 2026-04-23 18:12 | 14.48589 | -90.35336 | 15961 ft | 312 kts | 22° |
| 2026-04-23 18:12 | 14.50602 | -90.34452 | 16668 ft | 316 kts | 21° |
| 2026-04-23 18:12 | 14.52619 | -90.33567 | 17331 ft | 322 kts | 21° |
| 2026-04-23 18:12 | 14.54727 | -90.32640 | 17991 ft | 328 kts | 21° |
| 2026-04-23 18:13 | 14.56810 | -90.31721 | 18697 ft | 331 kts | 21° |
| 2026-04-23 18:13 | 14.58940 | -90.30775 | 19309 ft | 335 kts | 21° |
| 2026-04-23 18:13 | 14.61099 | -90.29813 | 19909 ft | 340 kts | 21° |
| 2026-04-23 18:13 | 14.63280 | -90.28840 | 20547 ft | 343 kts | 21° |
| 2026-04-23 18:14 | 14.64735 | -90.28189 | 20938 ft | 345 kts | 21° |
| 2026-04-23 18:14 | 14.67713 | -90.26856 | 21705 ft | 351 kts | 21° |
| 2026-04-23 18:14 | 14.69977 | -90.25842 | 22287 ft | 355 kts | 21° |
| 2026-04-23 18:14 | 14.72264 | -90.24817 | 22805 ft | 361 kts | 21° |
| 2026-04-23 18:15 | 14.74585 | -90.23777 | 23369 ft | 365 kts | 21° |
| 2026-04-23 18:15 | 14.76898 | -90.22740 | 23909 ft | 368 kts | 20° |
| 2026-04-23 18:15 | 14.79264 | -90.21678 | 24403 ft | 371 kts | 20° |
| 2026-04-23 18:15 | 14.81644 | -90.20611 | 24887 ft | 375 kts | 20° |
| 2026-04-23 18:16 | 14.84051 | -90.19531 | 25374 ft | 378 kts | 20° |
| 2026-04-23 18:16 | 14.86471 | -90.18446 | 25850 ft | 381 kts | 20° |
| 2026-04-23 18:16 | 14.88914 | -90.17351 | 26323 ft | 384 kts | 20° |
| 2026-04-23 18:17 | 14.93881 | -90.15122 | 27174 ft | 391 kts | 20° |
| 2026-04-23 18:17 | 14.96358 | -90.14009 | 27629 ft | 394 kts | 20° |
| 2026-04-23 18:17 | 14.98881 | -90.12876 | 28102 ft | 397 kts | 20° |
| 2026-04-23 18:17 | 15.01416 | -90.11736 | 28567 ft | 399 kts | 20° |
| 2026-04-23 18:18 | 15.03976 | -90.10585 | 28998 ft | 403 kts | 20° |
| 2026-04-23 18:18 | 15.06556 | -90.09425 | 29443 ft | 406 kts | 20° |
| 2026-04-23 18:18 | 15.09157 | -90.08255 | 29863 ft | 409 kts | 20° |
| 2026-04-23 18:18 | 15.11777 | -90.07076 | 30262 ft | 412 kts | 20° |
| 2026-04-23 18:19 | 15.14423 | -90.05885 | 30603 ft | 415 kts | 20° |
| 2026-04-23 18:19 | 15.17078 | -90.04690 | 30958 ft | 417 kts | 20° |
| 2026-04-23 18:19 | 15.19756 | -90.03484 | 31292 ft | 421 kts | 20° |
| 2026-04-23 18:19 | 15.22451 | -90.02269 | 31577 ft | 424 kts | 20° |
| 2026-04-23 18:20 | 15.25138 | -90.01058 | 31844 ft | 429 kts | 20° |
| 2026-04-23 18:20 | 15.27885 | -89.99821 | 32150 ft | 431 kts | 20° |
| 2026-04-23 18:20 | 15.30644 | -89.98577 | 32480 ft | 434 kts | 20° |
| 2026-04-23 18:20 | 15.32489 | -89.97744 | 32680 ft | 436 kts | 20° |
| 2026-04-23 18:21 | 15.35276 | -89.96487 | 32960 ft | 439 kts | 20° |
| 2026-04-23 18:21 | 15.38083 | -89.95220 | 33257 ft | 441 kts | 20° |